createdAt,value
2022-09-03T00:02:28.330Z,89304.56
2022-09-03T00:05:14.937Z,89304.09
2022-09-03T00:08:03.666Z,89295.63
2022-09-03T00:10:48.427Z,89292.59
2022-09-03T00:13:23.615Z,89308.38
2022-09-03T00:15:53.367Z,89313.47
2022-09-03T00:18:24.162Z,89314.44
2022-09-03T00:21:05.028Z,89310.50
2022-09-03T00:23:33.422Z,89297.88
2022-09-03T00:26:05.114Z,89306.41
2022-09-03T00:28:42.075Z,89298.31
2022-09-03T00:31:22.743Z,89296.94
2022-09-03T00:33:55.067Z,89290.50
2022-09-03T00:36:28.638Z,89303.47
2022-09-03T00:38:55.838Z,89306.91
2022-09-03T00:41:22.644Z,89308.91
2022-09-03T00:44:19.971Z,89302.91
2022-09-03T00:47:13.746Z,89295.50
2022-09-03T00:50:09.027Z,89297.13
2022-09-03T00:53:02.748Z,89306.31
2022-09-03T00:55:44.392Z,89308.47
2022-09-03T00:58:29.132Z,89305.59
2022-09-03T01:00:56.678Z,89307.78
2022-09-03T01:03:42.268Z,89314.50
2022-09-03T01:06:18.877Z,89310.91
2022-09-03T01:09:15.393Z,89310.84
2022-09-03T01:12:05.146Z,89309.03
2022-09-03T01:15:01.875Z,89312.41
2022-09-03T01:17:35.024Z,89309.84
2022-09-03T01:20:27.387Z,89318.44
2022-09-03T01:23:19.332Z,89322.19
2022-09-03T01:26:11.655Z,89316.59
2022-09-03T01:28:41.326Z,89321.81
2022-09-03T01:31:40.002Z,89320.53
2022-09-03T01:34:28.236Z,89329.25
2022-09-03T01:37:11.898Z,89317.31
2022-09-03T01:40:20.881Z,89326.75
2022-09-03T01:43:18.596Z,89337.06
2022-09-03T01:46:41.238Z,89326.91
2022-09-03T01:49:21.503Z,89336.50
2022-09-03T01:51:56.327Z,89330.91
2022-09-03T01:54:38.095Z,89339.22
2022-09-03T01:57:37.122Z,89344.84
2022-09-03T02:00:12.946Z,89340.50
2022-09-03T02:02:43.020Z,89337.63
2022-09-03T02:05:21.280Z,89345.63
2022-09-03T02:07:51.951Z,89345.47
2022-09-03T02:10:22.706Z,89338.25
2022-09-03T02:12:54.744Z,89342.97
2022-09-03T02:15:24.609Z,89339.38
2022-09-03T02:17:58.238Z,89337.19
2022-09-03T02:20:28.582Z,89337.41
2022-09-03T02:22:56.966Z,89343.22
2022-09-03T02:25:30.837Z,89336.34
2022-09-03T02:27:58.238Z,89341.06
2022-09-03T02:30:25.117Z,89341.06
2022-09-03T02:32:52.071Z,89337.06
2022-09-03T02:35:19.195Z,89348.91
2022-09-03T02:37:46.085Z,89335.69
2022-09-03T02:40:12.970Z,89348.94
2022-09-03T02:42:39.825Z,89346.44
2022-09-03T02:45:30.335Z,89351.19
2022-09-03T02:48:00.360Z,89359.03
2022-09-03T02:50:27.609Z,89353.25
2022-09-03T02:52:54.829Z,89352.91
2022-09-03T02:55:21.980Z,89360.19
2022-09-03T02:57:48.885Z,89357.78
2022-09-03T03:00:15.969Z,89354.75
2022-09-03T03:02:42.844Z,89348.44
2022-09-03T03:05:16.607Z,89351.16
2022-09-03T03:07:43.439Z,89355.16
2022-09-03T03:10:10.550Z,89358.38
2022-09-03T03:12:37.476Z,89355.50
2022-09-03T03:15:04.718Z,89351.19
2022-09-03T03:17:31.584Z,89360.63
2022-09-03T03:19:58.562Z,89352.84
2022-09-03T03:22:25.437Z,89356.81
2022-09-03T03:24:52.322Z,89356.25
2022-09-03T03:27:19.317Z,89364.41
2022-09-03T03:29:46.183Z,89361.88
2022-09-03T03:32:13.027Z,89364.38
2022-09-03T03:34:40.006Z,89370.69
2022-09-03T03:37:06.972Z,89373.03
2022-09-03T03:39:33.956Z,89379.34
2022-09-03T03:42:00.900Z,89374.47
2022-09-03T03:44:27.766Z,89374.25
2022-09-03T03:46:54.619Z,89382.91
2022-09-03T03:49:21.666Z,89377.44
2022-09-03T03:51:48.557Z,89385.00
2022-09-03T03:54:17.634Z,89388.53
2022-09-03T03:56:45.025Z,89390.66
2022-09-03T03:59:22.387Z,89388.97
2022-09-03T04:01:49.352Z,89391.94
2022-09-03T04:04:16.242Z,89384.06
2022-09-03T04:06:43.121Z,89382.50
2022-09-03T04:09:09.971Z,89385.06
2022-09-03T04:11:36.880Z,89389.09
2022-09-03T04:14:03.776Z,89393.28
2022-09-03T04:16:30.787Z,89399.44
2022-09-03T04:18:57.850Z,89395.69
2022-09-03T04:21:28.594Z,89394.06
2022-09-03T04:23:56.994Z,89393.97
2022-09-03T04:26:30.342Z,89396.59
2022-09-03T04:28:58.035Z,89396.25
2022-09-03T04:31:25.254Z,89401.66
2022-09-03T04:33:52.084Z,89405.63
2022-09-03T04:36:21.167Z,89398.19
2022-09-03T04:38:51.374Z,89404.97
2022-09-03T04:41:20.842Z,89398.03
2022-09-03T04:43:51.267Z,89397.50
2022-09-03T04:46:19.557Z,89395.41
2022-09-03T04:48:51.525Z,89400.03
2022-09-03T04:51:23.397Z,89401.22
2022-09-03T04:53:56.929Z,89406.28
2022-09-03T04:56:26.669Z,89397.19
2022-09-03T04:59:01.729Z,89397.47
2022-09-03T05:01:31.058Z,89397.91
2022-09-03T05:03:59.012Z,89401.63
2022-09-03T05:06:27.283Z,89401.75
2022-09-03T05:08:56.703Z,89413.38
2022-09-03T05:11:25.052Z,89410.16
2022-09-03T05:13:54.862Z,89409.13
2022-09-03T05:16:22.905Z,89392.97
2022-09-03T05:18:53.316Z,89409.00
2022-09-03T05:21:21.094Z,89413.13
2022-09-03T05:23:49.694Z,89416.41
2022-09-03T05:26:19.818Z,89413.19
2022-09-03T05:28:48.092Z,89419.19
2022-09-03T05:31:19.083Z,89427.47
2022-09-03T05:33:48.161Z,89420.63
2022-09-03T05:36:20.886Z,89429.41
2022-09-03T05:38:47.891Z,89421.28
2022-09-03T05:41:17.439Z,89430.66
2022-09-03T05:43:48.890Z,89425.66
2022-09-03T05:46:15.877Z,89432.97
2022-09-03T05:48:43.250Z,89425.22
2022-09-03T05:51:18.071Z,89431.81
2022-09-03T05:53:47.655Z,89425.66
2022-09-03T05:56:23.164Z,89429.72
2022-09-03T05:58:52.527Z,89427.16
2022-09-03T06:01:19.329Z,89426.19
2022-09-03T06:03:48.292Z,89426.19
2022-09-03T06:06:15.870Z,89423.34
2022-09-03T06:08:42.996Z,89425.97
2022-09-03T06:11:10.097Z,89429.94
2022-09-03T06:13:37.316Z,89423.84
2022-09-03T06:16:06.696Z,89414.50
2022-09-03T06:18:33.790Z,89428.81
2022-09-03T06:21:03.774Z,89425.09
2022-09-03T06:23:32.128Z,89433.72
2022-09-03T06:26:05.598Z,89434.31
2022-09-03T06:28:37.180Z,89433.91
2022-09-03T06:31:06.784Z,89436.31
2022-09-03T06:33:36.051Z,89435.94
2022-09-03T06:36:08.686Z,89432.56
2022-09-03T06:38:38.032Z,89421.94
2022-09-03T06:41:10.170Z,89440.44
2022-09-03T06:43:39.533Z,89440.69
2022-09-03T06:46:18.161Z,89434.91
2022-09-03T06:48:45.760Z,89435.59
2022-09-03T06:51:22.240Z,89438.28
2022-09-03T06:53:51.800Z,89445.66
2022-09-03T06:56:21.367Z,89449.72
2022-09-03T06:58:48.545Z,89447.16
2022-09-03T07:01:21.217Z,89445.34
2022-09-03T07:03:53.142Z,89446.88
2022-09-03T07:06:20.217Z,89444.69
2022-09-03T07:08:47.273Z,89451.59
2022-09-03T07:11:16.477Z,89441.09
2022-09-03T07:13:45.637Z,89440.19
2022-09-03T07:16:21.108Z,89435.09
2022-09-03T07:18:49.059Z,89437.84
2022-09-03T07:21:18.683Z,89435.09
2022-09-03T07:23:46.554Z,89430.88
2022-09-03T07:26:22.473Z,89430.78
2022-09-03T07:28:50.751Z,89435.09
2022-09-03T07:31:33.167Z,89424.28
2022-09-03T07:34:02.320Z,89433.34
2022-09-03T07:36:35.261Z,89420.63
2022-09-03T07:39:02.714Z,89426.03
2022-09-03T07:41:29.538Z,89424.50
2022-09-03T07:43:56.471Z,89421.03
2022-09-03T07:46:26.111Z,89422.16
2022-09-03T07:48:54.712Z,89416.84
2022-09-03T07:51:23.455Z,89412.75
2022-09-03T07:53:53.995Z,89415.91
2022-09-03T07:56:20.878Z,89415.50
2022-09-03T07:58:47.914Z,89414.47
2022-09-03T08:01:17.709Z,89415.31
2022-09-03T08:03:47.379Z,89408.16
2022-09-03T08:06:15.984Z,89405.59
2022-09-03T08:08:42.909Z,89401.81
2022-09-03T08:11:12.464Z,89411.63
2022-09-03T08:13:41.036Z,89409.38
2022-09-03T08:16:12.593Z,89413.47
2022-09-03T08:18:40.350Z,89401.19
2022-09-03T08:21:12.603Z,89406.38
2022-09-03T08:23:41.171Z,89402.31
2022-09-03T08:26:08.646Z,89400.16
2022-09-03T08:28:36.834Z,89388.31
2022-09-03T08:31:07.049Z,89390.47
2022-09-03T08:33:34.372Z,89388.50
2022-09-03T08:36:01.339Z,89380.94
2022-09-03T08:38:28.474Z,89384.25
2022-09-03T08:41:06.380Z,89390.25
2022-09-03T08:43:44.289Z,89382.44
2022-09-03T08:46:12.334Z,89379.38
2022-09-03T08:48:39.552Z,89367.50
2022-09-03T08:51:09.685Z,89373.94
2022-09-03T08:53:40.767Z,89377.59
2022-09-03T08:56:24.472Z,89371.34
2022-09-03T08:58:52.676Z,89373.28
2022-09-03T09:02:04.174Z,89359.75
2022-09-03T09:05:14.337Z,89378.03
2022-09-03T09:08:07.169Z,89374.34
2022-09-03T09:10:54.520Z,89374.97
2022-09-03T09:13:52.160Z,89372.50
2022-09-03T09:16:37.685Z,89371.56
2022-09-03T09:19:24.301Z,89367.47
2022-09-03T09:21:59.710Z,89372.50
2022-09-03T09:24:34.605Z,89369.41
2022-09-03T09:27:05.565Z,89371.28
2022-09-03T09:29:37.145Z,89383.38
2022-09-03T09:32:05.911Z,89348.19
2022-09-03T09:34:38.011Z,89377.38
2022-09-03T09:37:12.383Z,89372.16
2022-09-03T09:39:40.864Z,89364.66
2022-09-03T09:42:10.852Z,89367.28
2022-09-03T09:44:43.512Z,89375.88
2022-09-03T09:47:30.310Z,89378.50
2022-09-03T09:50:02.097Z,89371.97
2022-09-03T09:52:30.644Z,89376.47
2022-09-03T09:55:11.178Z,89367.09
2022-09-03T09:57:38.063Z,89367.41
2022-09-03T10:00:08.592Z,89355.03
2022-09-03T10:02:37.283Z,89374.53
2022-09-03T10:05:21.035Z,89365.56
2022-09-03T10:08:19.087Z,89365.97
2022-09-03T10:10:48.906Z,89367.41
2022-09-03T10:13:27.411Z,89362.38
2022-09-03T10:16:29.584Z,89365.59
2022-09-03T10:19:13.245Z,89374.47
2022-09-03T10:22:03.427Z,89366.47
2022-09-03T10:24:41.869Z,89359.56
2022-09-03T10:27:16.453Z,89361.50
2022-09-03T10:29:43.471Z,89368.47
2022-09-03T10:32:36.863Z,89368.63
2022-09-03T10:35:29.143Z,89363.72
2022-09-03T10:38:22.296Z,89366.19
2022-09-03T10:41:07.898Z,89372.06
2022-09-03T10:43:55.016Z,89353.41
2022-09-03T10:46:35.588Z,89348.09
2022-09-03T10:49:27.975Z,89345.66
2022-09-03T10:52:12.548Z,89356.88
2022-09-03T10:54:52.663Z,89358.22
2022-09-03T10:57:25.264Z,89354.25
2022-09-03T11:00:03.319Z,89332.59
2022-09-03T11:02:48.593Z,89361.31
2022-09-03T11:05:25.965Z,89344.63
2022-09-03T11:08:01.624Z,89353.91
2022-09-03T11:10:34.199Z,89369.25
2022-09-03T11:13:11.657Z,89356.06
2022-09-03T11:16:02.221Z,89350.38
2022-09-03T11:18:41.246Z,89353.13
2022-09-03T11:21:12.946Z,89348.50
2022-09-03T11:23:46.967Z,89342.16
2022-09-03T11:26:18.748Z,89344.53
2022-09-03T11:29:16.688Z,89336.91
2022-09-03T11:32:05.567Z,89333.94
2022-09-03T11:34:50.289Z,89333.91
2022-09-03T11:37:19.419Z,89334.44
2022-09-03T11:40:14.366Z,89327.19
2022-09-03T11:42:43.249Z,89319.91
2022-09-03T11:45:24.576Z,89320.47
2022-09-03T11:47:52.155Z,89328.09
2022-09-03T11:50:21.730Z,89313.28
2022-09-03T11:52:50.314Z,89309.19
2022-09-03T11:55:37.583Z,89302.94
2022-09-03T11:58:20.329Z,89312.44
2022-09-03T12:00:48.446Z,89313.63
2022-09-03T12:03:16.169Z,89312.66
2022-09-03T12:05:50.930Z,89305.94
2022-09-03T12:08:20.673Z,89315.25
2022-09-03T12:11:27.840Z,89293.00
2022-09-03T12:14:27.449Z,89307.91
2022-09-03T12:17:00.101Z,89301.78
2022-09-03T12:19:33.088Z,89300.31
2022-09-03T12:22:00.014Z,89305.81
2022-09-03T12:24:27.559Z,89303.19
2022-09-03T12:26:54.927Z,89309.97
2022-09-03T12:29:27.791Z,89299.28
2022-09-03T12:31:56.128Z,89301.84
2022-09-03T12:34:24.220Z,89289.81
2022-09-03T12:36:53.553Z,89295.94
2022-09-03T12:42:20.802Z,89275.97
2022-09-03T12:44:47.747Z,89279.97
2022-09-03T12:47:36.952Z,89284.25
2022-09-03T12:50:11.552Z,89283.03
2022-09-03T12:53:09.368Z,89270.75
2022-09-03T12:55:40.805Z,89273.69
2022-09-03T12:58:15.227Z,89272.25
2022-09-03T13:00:50.347Z,89279.81
2022-09-03T13:03:28.245Z,89275.03
2022-09-03T13:06:01.821Z,89277.50
2022-09-03T13:08:36.944Z,89279.25
2022-09-03T13:11:05.253Z,89275.78
2022-09-03T13:13:35.677Z,89280.56
2022-09-03T13:16:27.154Z,89277.25
2022-09-03T13:19:11.796Z,89275.09
2022-09-03T13:21:51.448Z,89270.09
2022-09-03T13:24:24.640Z,89259.81
2022-09-03T13:27:24.926Z,89250.97
2022-09-03T13:30:20.157Z,89263.19
2022-09-03T13:32:59.586Z,89264.03
2022-09-03T13:35:45.051Z,89262.19
2022-09-03T13:38:28.412Z,89251.66
2022-09-03T13:41:02.784Z,89274.63
2022-09-03T13:43:35.482Z,89272.88
2022-09-03T13:46:28.457Z,89277.97
2022-09-03T13:49:09.895Z,89273.44
2022-09-03T13:51:43.258Z,89273.22
2022-09-03T13:54:42.430Z,89258.81
2022-09-03T13:57:25.492Z,89258.50
2022-09-03T14:00:02.734Z,89258.13
2022-09-03T14:02:44.700Z,89267.50
2022-09-03T14:05:35.198Z,89263.38
2022-09-03T14:08:12.345Z,89264.69
2022-09-03T14:11:04.889Z,89267.06
2022-09-03T14:13:46.556Z,89271.88
2022-09-03T14:16:41.205Z,89264.84
2022-09-03T14:19:29.394Z,89266.78
2022-09-03T14:22:07.246Z,89267.81
2022-09-03T14:24:52.213Z,89269.13
2022-09-03T14:27:30.856Z,89271.97
2022-09-03T14:30:19.429Z,89267.09
2022-09-03T14:33:17.797Z,89273.00
2022-09-03T14:36:17.607Z,89269.22
2022-09-03T14:39:19.560Z,89253.41
2022-09-03T14:41:55.809Z,89257.03
2022-09-03T14:44:49.869Z,89272.31
2022-09-03T14:47:49.608Z,89276.94
2022-09-03T14:50:35.191Z,89288.03
2022-09-03T14:53:30.974Z,89288.09
2022-09-03T14:56:04.098Z,89287.66
2022-09-03T14:59:02.545Z,89278.03
2022-09-03T15:01:39.407Z,89280.38
2022-09-03T15:04:29.952Z,89286.56
2022-09-03T15:07:07.863Z,89291.03
2022-09-03T15:09:45.398Z,89293.34
2022-09-03T15:12:34.714Z,89306.72
2022-09-03T15:15:08.836Z,89298.28
2022-09-03T15:17:45.983Z,89306.28
2022-09-03T15:20:30.958Z,89319.91
2022-09-03T15:23:08.132Z,89302.13
2022-09-03T15:25:59.951Z,89315.84
2022-09-03T15:28:54.765Z,89316.59
2022-09-03T15:31:43.143Z,89308.22
2022-09-03T15:34:22.338Z,89321.81
2022-09-03T15:36:52.440Z,89315.63
2022-09-03T15:39:34.594Z,89310.38
2022-09-03T15:42:15.041Z,89308.25
2022-09-03T15:44:48.845Z,89309.53
2022-09-03T15:47:40.048Z,89316.47
2022-09-03T15:50:35.064Z,89321.63
2022-09-03T15:53:15.480Z,89317.19
2022-09-03T15:55:45.303Z,89318.00
2022-09-03T15:58:31.181Z,89325.75
2022-09-03T16:01:08.084Z,89316.53
2022-09-03T16:03:44.369Z,89331.31
2022-09-03T16:06:42.732Z,89324.97
2022-09-03T16:09:23.019Z,89325.88
2022-09-03T16:12:05.131Z,89345.50
2022-09-03T16:14:39.720Z,89340.44
2022-09-03T16:17:39.805Z,89346.31
2022-09-03T16:20:20.611Z,89335.63
2022-09-03T16:23:18.124Z,89336.84
2022-09-03T16:26:05.537Z,89345.56
2022-09-03T16:28:38.055Z,89354.56
2022-09-03T16:31:15.082Z,89362.81
2022-09-03T16:34:18.845Z,89367.44
2022-09-03T16:36:52.325Z,89366.91
2022-09-03T16:39:31.425Z,89380.03
2022-09-03T16:42:11.639Z,89375.19
2022-09-03T16:44:54.572Z,89389.88
2022-09-03T16:47:38.289Z,89385.13
2022-09-03T16:50:22.379Z,89385.72
2022-09-03T16:53:15.830Z,89395.81
2022-09-03T16:55:51.553Z,89400.72
2022-09-03T16:59:02.541Z,89405.03
2022-09-03T17:02:18.204Z,89413.84
2022-09-03T17:05:54.846Z,89435.31
2022-09-03T17:11:59.546Z,89443.34
2022-09-03T17:15:04.212Z,89446.94
2022-09-03T17:17:49.892Z,89457.47
2022-09-03T17:20:49.187Z,89468.22
2022-09-03T17:23:30.087Z,89478.88
2022-09-03T17:26:20.410Z,89487.53
2022-09-03T17:28:57.643Z,89493.13
2022-09-03T17:31:49.380Z,89484.94
2022-09-03T17:34:38.157Z,89510.09
2022-09-03T17:37:26.806Z,89502.00
2022-09-03T17:39:56.575Z,89510.13
2022-09-03T17:43:03.057Z,89512.66
2022-09-03T17:46:02.267Z,89512.06
2022-09-03T17:48:46.346Z,89526.28
2022-09-03T17:51:41.714Z,89536.34
2022-09-03T17:54:20.709Z,89536.03
2022-09-03T17:57:06.048Z,89534.41
2022-09-03T17:59:37.983Z,89533.06
2022-09-03T18:02:45.527Z,89543.38
2022-09-03T18:05:29.563Z,89546.44
2022-09-03T18:08:23.230Z,89560.16
2022-09-03T18:10:55.600Z,89563.84
2022-09-03T18:13:47.290Z,89566.28
2022-09-03T18:16:23.009Z,89550.22
2022-09-03T18:18:54.394Z,89573.97
2022-09-03T18:21:31.689Z,89561.47
2022-09-03T18:24:17.160Z,89569.25
2022-09-03T18:26:52.872Z,89575.75
2022-09-03T18:29:34.925Z,89566.44
2022-09-03T18:32:02.239Z,89567.28
2022-09-03T18:34:35.401Z,89574.03
2022-09-03T18:39:47.528Z,89581.59
2022-09-03T18:42:38.335Z,89583.03
2022-09-03T18:45:56.319Z,89583.03
2022-09-03T18:48:34.289Z,89586.31
2022-09-03T18:51:11.110Z,89589.19
2022-09-03T18:54:14.940Z,89588.09
2022-09-03T18:56:48.016Z,89591.53
2022-09-03T18:59:22.852Z,89599.56
2022-09-03T19:01:50.548Z,89597.94
2022-09-03T19:04:50.921Z,89599.81
2022-09-03T19:07:45.963Z,89599.66
2022-09-03T19:10:25.179Z,89603.91
2022-09-03T19:13:13.792Z,89601.00
2022-09-03T19:16:06.686Z,89597.00
2022-09-03T19:19:12.034Z,89600.28
2022-09-03T19:21:48.027Z,89593.63
2022-09-03T19:24:15.106Z,89595.88
2022-09-03T19:26:58.391Z,89598.28
2022-09-03T19:30:04.230Z,89600.91
2022-09-03T19:33:09.644Z,89600.97
2022-09-03T19:36:02.707Z,89611.22
2022-09-03T19:39:00.419Z,89610.41
2022-09-03T19:41:44.147Z,89612.63
2022-09-03T19:44:32.453Z,89615.34
2022-09-03T19:47:02.500Z,89621.78
2022-09-03T19:49:57.164Z,89623.63
2022-09-03T19:52:43.175Z,89625.13
2022-09-03T19:55:12.694Z,89633.09
2022-09-03T19:57:41.994Z,89643.97
2022-09-03T20:00:09.874Z,89630.59
2022-09-03T20:02:38.705Z,89636.28
2022-09-03T20:05:12.018Z,89636.09
2022-09-03T20:07:39.285Z,89649.09
2022-09-03T20:10:10.771Z,89644.28
2022-09-03T20:12:42.672Z,89640.94
2022-09-03T20:15:10.130Z,89642.06
2022-09-03T20:17:57.442Z,89648.16
2022-09-03T20:20:56.670Z,89647.03
2022-09-03T20:23:35.395Z,89645.44
2022-09-03T20:26:10.556Z,89653.53
2022-09-03T20:28:49.384Z,89658.56
2022-09-03T20:31:44.174Z,89644.63
2022-09-03T20:34:13.688Z,89647.44
2022-09-03T20:36:57.505Z,89649.97
2022-09-03T20:39:46.243Z,89651.53
2022-09-03T20:42:44.054Z,89651.25
2022-09-03T20:45:16.319Z,89647.13
2022-09-03T20:48:01.307Z,89654.06
2022-09-03T20:50:33.715Z,89648.66
2022-09-03T20:53:03.210Z,89654.31
2022-09-03T20:55:41.880Z,89651.63
2022-09-03T20:58:11.623Z,89650.78
2022-09-03T21:01:09.919Z,89650.09
2022-09-03T21:03:47.377Z,89651.03
2022-09-03T21:06:43.522Z,89656.84
2022-09-03T21:09:32.047Z,89649.47
2022-09-03T21:12:15.283Z,89661.84
2022-09-03T21:15:08.080Z,89660.56
2022-09-03T21:17:46.255Z,89658.97
2022-09-03T21:20:32.950Z,89660.22
2022-09-03T21:23:13.286Z,89660.22
2022-09-03T21:25:49.192Z,89662.75
2022-09-03T21:28:27.253Z,89660.22
2022-09-03T21:30:59.732Z,89656.03
2022-09-03T21:33:33.637Z,89651.16
2022-09-03T21:36:15.675Z,89656.97
2022-09-03T21:38:48.973Z,89656.09
2022-09-03T21:41:21.860Z,89658.63
2022-09-03T21:44:17.047Z,89653.72
2022-09-03T21:47:05.417Z,89657.34
2022-09-03T21:49:53.561Z,89658.09
2022-09-03T21:52:27.143Z,89660.97
2022-09-03T21:54:54.278Z,89658.44
2022-09-03T21:57:26.360Z,89663.88
2022-09-03T22:00:05.001Z,89661.69
2022-09-03T22:02:33.201Z,89662.25
2022-09-03T22:05:01.284Z,89656.81
2022-09-03T22:07:56.715Z,89662.41
2022-09-03T22:10:44.947Z,89658.44
2022-09-03T22:13:11.785Z,89660.44
2022-09-03T22:15:38.742Z,89656.81
2022-09-03T22:18:15.617Z,89644.69
2022-09-03T22:20:47.526Z,89650.47
2022-09-03T22:23:22.272Z,89658.09
2022-09-03T22:25:55.191Z,89653.03
2022-09-03T22:28:26.578Z,89661.00
2022-09-03T22:31:06.582Z,89658.28
2022-09-03T22:33:44.267Z,89658.28
2022-09-03T22:36:16.443Z,89662.47
2022-09-03T22:39:06.029Z,89658.63
2022-09-03T22:41:53.007Z,89671.50
2022-09-03T22:44:49.186Z,89657.41
2022-09-03T22:47:28.057Z,89656.31
2022-09-03T22:50:12.404Z,89658.31
2022-09-03T22:52:44.614Z,89659.59
2022-09-03T22:55:20.704Z,89662.47
2022-09-03T22:58:08.167Z,89649.81
2022-09-03T23:00:42.419Z,89660.31
2022-09-03T23:03:16.322Z,89649.84
2022-09-03T23:06:05.168Z,89666.69
2022-09-03T23:08:41.469Z,89675.91
2022-09-03T23:11:30.179Z,89672.84
2022-09-03T23:14:06.885Z,89676.63
2022-09-03T23:16:46.764Z,89671.22
2022-09-03T23:21:52.557Z,89674.47
2022-09-03T23:24:35.225Z,89674.81
2022-09-03T23:27:07.626Z,89671.72
2022-09-03T23:30:01.227Z,89673.34
2022-09-03T23:32:33.364Z,89681.13
2022-09-03T23:35:03.920Z,89686.38
2022-09-03T23:37:45.925Z,89689.59
2022-09-03T23:40:32.695Z,89694.13
2022-09-03T23:43:19.219Z,89694.66
2022-09-03T23:46:00.980Z,89701.19
2022-09-03T23:48:30.665Z,89708.00
2022-09-03T23:51:22.498Z,89704.38
2022-09-03T23:54:23.494Z,89709.25
2022-09-03T23:57:16.168Z,89707.94
